sensor_id;sensor_type;location;lat;lon;timestamp;P1;durP1;ratioP1;P2;durP2;ratioP2
30068;SDS011;16894;49.456;10.644;2023-05-10T00:00:09;16.50;;;14.93;;
30068;SDS011;16894;49.456;10.644;2023-05-10T00:02:35;14.38;;;13.13;;
30068;SDS011;16894;49.456;10.644;2023-05-10T00:05:01;15.60;;;14.20;;
30068;SDS011;16894;49.456;10.644;2023-05-10T00:07:27;14.60;;;13.40;;
30068;SDS011;16894;49.456;10.644;2023-05-10T00:09:52;13.27;;;12.23;;
30068;SDS011;16894;49.456;10.644;2023-05-10T00:12:18;14.10;;;12.80;;
30068;SDS011;16894;49.456;10.644;2023-05-10T00:14:43;14.53;;;13.30;;
30068;SDS011;16894;49.456;10.644;2023-05-10T00:17:10;13.75;;;12.57;;
30068;SDS011;16894;49.456;10.644;2023-05-10T00:19:35;13.47;;;12.47;;
30068;SDS011;16894;49.456;10.644;2023-05-10T00:22:01;14.93;;;13.70;;
30068;SDS011;16894;49.456;10.644;2023-05-10T00:24:26;12.30;;;11.38;;
30068;SDS011;16894;49.456;10.644;2023-05-10T00:26:52;15.13;;;13.87;;
30068;SDS011;16894;49.456;10.644;2023-05-10T00:29:18;13.13;;;11.97;;
30068;SDS011;16894;49.456;10.644;2023-05-10T00:31:44;14.68;;;13.50;;
30068;SDS011;16894;49.456;10.644;2023-05-10T00:34:10;14.50;;;13.20;;
30068;SDS011;16894;49.456;10.644;2023-05-10T00:36:35;27.25;;;25.25;;
30068;SDS011;16894;49.456;10.644;2023-05-10T00:39:01;15.30;;;14.13;;
30068;SDS011;16894;49.456;10.644;2023-05-10T00:41:28;14.07;;;12.98;;
30068;SDS011;16894;49.456;10.644;2023-05-10T00:43:57;13.18;;;12.18;;
30068;SDS011;16894;49.456;10.644;2023-05-10T00:46:22;13.80;;;12.50;;
30068;SDS011;16894;49.456;10.644;2023-05-10T00:48:49;12.15;;;11.15;;
30068;SDS011;16894;49.456;10.644;2023-05-10T00:51:14;13.13;;;12.07;;
30068;SDS011;16894;49.456;10.644;2023-05-10T00:53:40;12.43;;;11.60;;
30068;SDS011;16894;49.456;10.644;2023-05-10T00:56:06;13.60;;;12.50;;
30068;SDS011;16894;49.456;10.644;2023-05-10T00:58:32;12.55;;;11.45;;
30068;SDS011;16894;49.456;10.644;2023-05-10T01:00:58;14.02;;;12.70;;
30068;SDS011;16894;49.456;10.644;2023-05-10T01:03:25;15.10;;;13.55;;
30068;SDS011;16894;49.456;10.644;2023-05-10T01:05:51;14.85;;;13.75;;
30068;SDS011;16894;49.456;10.644;2023-05-10T01:08:17;13.20;;;12.10;;
30068;SDS011;16894;49.456;10.644;2023-05-10T01:10:43;13.80;;;12.68;;
30068;SDS011;16894;49.456;10.644;2023-05-10T01:13:09;11.80;;;10.80;;
30068;SDS011;16894;49.456;10.644;2023-05-10T01:15:36;12.00;;;10.95;;
30068;SDS011;16894;49.456;10.644;2023-05-10T01:18:02;13.30;;;12.40;;
30068;SDS011;16894;49.456;10.644;2023-05-10T01:20:42;15.60;;;14.20;;
30068;SDS011;16894;49.456;10.644;2023-05-10T01:33:59;11.23;;;10.40;;
30068;SDS011;16894;49.456;10.644;2023-05-10T01:36:32;11.52;;;10.63;;
30068;SDS011;16894;49.456;10.644;2023-05-10T01:39:10;12.10;;;11.20;;
30068;SDS011;16894;49.456;10.644;2023-05-10T01:44:31;10.02;;;9.38;;
30068;SDS011;16894;49.456;10.644;2023-05-10T01:47:06;11.68;;;10.65;;
30068;SDS011;16894;49.456;10.644;2023-05-10T01:49:41;10.18;;;9.48;;
30068;SDS011;16894;49.456;10.644;2023-05-10T01:52:18;11.10;;;10.27;;
30068;SDS011;16894;49.456;10.644;2023-05-10T01:54:49;10.75;;;9.95;;
30068;SDS011;16894;49.456;10.644;2023-05-10T01:57:42;10.93;;;10.05;;
30068;SDS011;16894;49.456;10.644;2023-05-10T02:00:11;10.80;;;10.00;;
30068;SDS011;16894;49.456;10.644;2023-05-10T02:02:40;11.70;;;10.80;;
30068;SDS011;16894;49.456;10.644;2023-05-10T02:05:09;13.80;;;12.85;;
30068;SDS011;16894;49.456;10.644;2023-05-10T02:07:38;13.40;;;12.48;;
30068;SDS011;16894;49.456;10.644;2023-05-10T02:10:05;13.15;;;12.35;;
30068;SDS011;16894;49.456;10.644;2023-05-10T02:12:35;12.63;;;11.63;;
30068;SDS011;16894;49.456;10.644;2023-05-10T02:15:04;11.85;;;10.95;;
30068;SDS011;16894;49.456;10.644;2023-05-10T02:17:32;9.57;;;8.98;;
30068;SDS011;16894;49.456;10.644;2023-05-10T02:19:59;9.02;;;8.45;;
30068;SDS011;16894;49.456;10.644;2023-05-10T02:22:27;8.88;;;8.38;;
30068;SDS011;16894;49.456;10.644;2023-05-10T02:24:56;8.82;;;8.27;;
30068;SDS011;16894;49.456;10.644;2023-05-10T02:27:24;8.57;;;8.07;;
30068;SDS011;16894;49.456;10.644;2023-05-10T02:29:53;12.55;;;11.60;;
30068;SDS011;16894;49.456;10.644;2023-05-10T02:32:19;7.80;;;7.10;;
30068;SDS011;16894;49.456;10.644;2023-05-10T02:34:46;9.18;;;8.63;;
30068;SDS011;16894;49.456;10.644;2023-05-10T02:37:18;8.93;;;8.43;;
30068;SDS011;16894;49.456;10.644;2023-05-10T02:39:49;9.45;;;8.93;;
30068;SDS011;16894;49.456;10.644;2023-05-10T02:42:17;9.32;;;8.75;;
30068;SDS011;16894;49.456;10.644;2023-05-10T02:44:48;11.88;;;11.18;;
30068;SDS011;16894;49.456;10.644;2023-05-10T02:47:15;10.15;;;9.55;;
30068;SDS011;16894;49.456;10.644;2023-05-10T02:49:41;9.95;;;9.35;;
30068;SDS011;16894;49.456;10.644;2023-05-10T02:52:07;9.80;;;9.20;;
30068;SDS011;16894;49.456;10.644;2023-05-10T02:54:41;11.00;;;10.40;;
30068;SDS011;16894;49.456;10.644;2023-05-10T02:57:11;12.35;;;11.65;;
30068;SDS011;16894;49.456;10.644;2023-05-10T02:59:46;11.95;;;11.25;;
30068;SDS011;16894;49.456;10.644;2023-05-10T03:02:12;11.00;;;10.30;;
30068;SDS011;16894;49.456;10.644;2023-05-10T03:04:38;9.80;;;9.25;;
30068;SDS011;16894;49.456;10.644;2023-05-10T03:07:04;12.23;;;10.97;;
30068;SDS011;16894;49.456;10.644;2023-05-10T03:09:30;9.00;;;8.50;;
30068;SDS011;16894;49.456;10.644;2023-05-10T03:12:07;9.02;;;8.32;;
30068;SDS011;16894;49.456;10.644;2023-05-10T03:18:01;7.32;;;6.93;;
30068;SDS011;16894;49.456;10.644;2023-05-10T03:20:35;7.07;;;6.63;;
30068;SDS011;16894;49.456;10.644;2023-05-10T03:25:44;7.20;;;6.80;;
30068;SDS011;16894;49.456;10.644;2023-05-10T03:28:13;7.32;;;6.93;;
30068;SDS011;16894;49.456;10.644;2023-05-10T03:30:40;7.28;;;6.88;;
30068;SDS011;16894;49.456;10.644;2023-05-10T03:33:07;8.18;;;7.68;;
30068;SDS011;16894;49.456;10.644;2023-05-10T03:35:33;11.85;;;11.25;;
30068;SDS011;16894;49.456;10.644;2023-05-10T03:37:59;6.63;;;6.22;;
30068;SDS011;16894;49.456;10.644;2023-05-10T03:40:26;7.70;;;7.30;;
30068;SDS011;16894;49.456;10.644;2023-05-10T03:42:54;7.25;;;6.85;;
30068;SDS011;16894;49.456;10.644;2023-05-10T03:45:20;6.45;;;6.15;;
30068;SDS011;16894;49.456;10.644;2023-05-10T03:47:46;6.73;;;6.33;;
30068;SDS011;16894;49.456;10.644;2023-05-10T03:50:11;6.43;;;6.13;;
30068;SDS011;16894;49.456;10.644;2023-05-10T03:52:37;7.23;;;6.77;;
30068;SDS011;16894;49.456;10.644;2023-05-10T03:55:04;6.03;;;5.63;;
30068;SDS011;16894;49.456;10.644;2023-05-10T03:57:30;7.60;;;7.20;;
30068;SDS011;16894;49.456;10.644;2023-05-10T03:59:56;7.33;;;6.93;;
30068;SDS011;16894;49.456;10.644;2023-05-10T04:02:21;12.57;;;11.87;;
30068;SDS011;16894;49.456;10.644;2023-05-10T04:04:47;7.07;;;6.67;;
30068;SDS011;16894;49.456;10.644;2023-05-10T04:07:13;7.35;;;6.95;;
30068;SDS011;16894;49.456;10.644;2023-05-10T04:09:39;6.20;;;5.90;;
30068;SDS011;16894;49.456;10.644;2023-05-10T04:12:05;7.57;;;7.18;;
30068;SDS011;16894;49.456;10.644;2023-05-10T04:14:31;6.95;;;6.55;;
30068;SDS011;16894;49.456;10.644;2023-05-10T04:16:57;6.35;;;6.05;;
30068;SDS011;16894;49.456;10.644;2023-05-10T04:19:22;6.23;;;5.90;;
30068;SDS011;16894;49.456;10.644;2023-05-10T04:21:48;7.72;;;7.30;;
30068;SDS011;16894;49.456;10.644;2023-05-10T04:24:14;6.33;;;6.00;;
30068;SDS011;16894;49.456;10.644;2023-05-10T04:26:40;6.90;;;6.50;;
30068;SDS011;16894;49.456;10.644;2023-05-10T04:29:05;6.95;;;6.55;;
30068;SDS011;16894;49.456;10.644;2023-05-10T04:31:31;11.50;;;7.07;;
30068;SDS011;16894;49.456;10.644;2023-05-10T04:33:57;6.40;;;6.00;;
30068;SDS011;16894;49.456;10.644;2023-05-10T04:36:23;7.33;;;6.83;;
30068;SDS011;16894;49.456;10.644;2023-05-10T04:38:48;8.13;;;7.60;;
30068;SDS011;16894;49.456;10.644;2023-05-10T04:41:14;6.83;;;6.43;;
30068;SDS011;16894;49.456;10.644;2023-05-10T04:43:40;6.53;;;6.15;;
30068;SDS011;16894;49.456;10.644;2023-05-10T04:46:05;7.40;;;6.90;;
30068;SDS011;16894;49.456;10.644;2023-05-10T04:50:58;6.35;;;6.00;;
30068;SDS011;16894;49.456;10.644;2023-05-10T04:53:24;7.20;;;6.80;;
30068;SDS011;16894;49.456;10.644;2023-05-10T04:55:49;6.03;;;5.63;;
30068;SDS011;16894;49.456;10.644;2023-05-10T04:58:15;8.03;;;7.53;;
30068;SDS011;16894;49.456;10.644;2023-05-10T05:00:41;7.82;;;7.35;;
30068;SDS011;16894;49.456;10.644;2023-05-10T05:03:07;6.90;;;6.50;;
30068;SDS011;16894;49.456;10.644;2023-05-10T05:05:33;6.85;;;6.45;;
30068;SDS011;16894;49.456;10.644;2023-05-10T05:07:58;7.13;;;6.70;;
30068;SDS011;16894;49.456;10.644;2023-05-10T05:10:24;6.63;;;6.23;;
30068;SDS011;16894;49.456;10.644;2023-05-10T05:12:49;6.57;;;6.17;;
30068;SDS011;16894;49.456;10.644;2023-05-10T05:15:15;6.88;;;6.47;;
30068;SDS011;16894;49.456;10.644;2023-05-10T05:17:42;9.43;;;8.73;;
30068;SDS011;16894;49.456;10.644;2023-05-10T05:22:35;7.93;;;7.43;;
30068;SDS011;16894;49.456;10.644;2023-05-10T05:25:01;9.68;;;9.13;;
30068;SDS011;16894;49.456;10.644;2023-05-10T05:27:28;9.55;;;9.05;;
30068;SDS011;16894;49.456;10.644;2023-05-10T05:29:57;12.07;;;11.38;;
30068;SDS011;16894;49.456;10.644;2023-05-10T05:32:24;10.85;;;10.25;;
30068;SDS011;16894;49.456;10.644;2023-05-10T05:34:50;12.45;;;11.75;;
30068;SDS011;16894;49.456;10.644;2023-05-10T05:37:16;11.52;;;8.85;;
30068;SDS011;16894;49.456;10.644;2023-05-10T05:39:43;9.70;;;9.20;;
30068;SDS011;16894;49.456;10.644;2023-05-10T05:42:10;15.77;;;14.88;;
30068;SDS011;16894;49.456;10.644;2023-05-10T05:47:01;8.95;;;8.45;;
30068;SDS011;16894;49.456;10.644;2023-05-10T05:49:27;10.60;;;9.90;;
30068;SDS011;16894;49.456;10.644;2023-05-10T05:51:53;18.13;;;16.95;;
30068;SDS011;16894;49.456;10.644;2023-05-10T05:54:18;14.57;;;13.50;;
30068;SDS011;16894;49.456;10.644;2023-05-10T05:56:44;14.43;;;13.60;;
30068;SDS011;16894;49.456;10.644;2023-05-10T05:59:10;11.87;;;11.10;;
30068;SDS011;16894;49.456;10.644;2023-05-10T06:04:02;10.73;;;9.82;;
30068;SDS011;16894;49.456;10.644;2023-05-10T06:06:28;18.70;;;17.50;;
30068;SDS011;16894;49.456;10.644;2023-05-10T06:08:54;12.73;;;11.93;;
30068;SDS011;16894;49.456;10.644;2023-05-10T06:11:20;24.20;;;22.67;;
30068;SDS011;16894;49.456;10.644;2023-05-10T06:13:50;12.43;;;11.68;;
30068;SDS011;16894;49.456;10.644;2023-05-10T06:16:16;21.03;;;19.73;;
30068;SDS011;16894;49.456;10.644;2023-05-10T06:18:42;26.52;;;24.92;;
30068;SDS011;16894;49.456;10.644;2023-05-10T06:21:08;73.93;;;69.33;;
30068;SDS011;16894;49.456;10.644;2023-05-10T06:23:34;126.78;;;119.13;;
30068;SDS011;16894;49.456;10.644;2023-05-10T06:28:26;180.70;;;169.90;;
30068;SDS011;16894;49.456;10.644;2023-05-10T06:30:51;236.50;;;222.77;;
30068;SDS011;16894;49.456;10.644;2023-05-10T06:33:17;323.80;;;305.07;;
30068;SDS011;16894;49.456;10.644;2023-05-10T06:35:43;538.37;;;501.27;;
30068;SDS011;16894;49.456;10.644;2023-05-10T06:38:08;554.57;;;516.60;;
30068;SDS011;16894;49.456;10.644;2023-05-10T06:40:34;537.80;;;502.77;;
30068;SDS011;16894;49.456;10.644;2023-05-10T06:45:26;573.80;;;534.45;;
30068;SDS011;16894;49.456;10.644;2023-05-10T06:47:52;645.65;;;599.20;;
30068;SDS011;16894;49.456;10.644;2023-05-10T06:50:18;631.38;;;587.45;;
30068;SDS011;16894;49.456;10.644;2023-05-10T06:52:43;627.73;;;582.90;;
30068;SDS011;16894;49.456;10.644;2023-05-10T06:55:09;650.33;;;603.83;;
30068;SDS011;16894;49.456;10.644;2023-05-10T06:57:35;682.35;;;633.17;;
30068;SDS011;16894;49.456;10.644;2023-05-10T07:00:01;703.03;;;650.63;;
30068;SDS011;16894;49.456;10.644;2023-05-10T07:02:29;771.15;;;712.53;;
30068;SDS011;16894;49.456;10.644;2023-05-10T07:04:54;754.20;;;696.88;;
30068;SDS011;16894;49.456;10.644;2023-05-10T07:07:20;890.23;;;817.93;;
30068;SDS011;16894;49.456;10.644;2023-05-10T07:09:46;909.23;;;835.93;;
30068;SDS011;16894;49.456;10.644;2023-05-10T07:12:11;959.50;;;877.80;;
30068;SDS011;16894;49.456;10.644;2023-05-10T07:14:37;911.00;;;836.97;;
30068;SDS011;16894;49.456;10.644;2023-05-10T07:17:03;1038.27;;;941.40;;
30068;SDS011;16894;49.456;10.644;2023-05-10T07:19:29;886.72;;;815.97;;
30068;SDS011;16894;49.456;10.644;2023-05-10T07:21:54;912.78;;;838.88;;
30068;SDS011;16894;49.456;10.644;2023-05-10T07:24:23;844.03;;;778.65;;
30068;SDS011;16894;49.456;10.644;2023-05-10T07:26:49;922.42;;;846.83;;
30068;SDS011;16894;49.456;10.644;2023-05-10T07:29:15;972.53;;;890.60;;
30068;SDS011;16894;49.456;10.644;2023-05-10T07:31:41;996.40;;;909.87;;
30068;SDS011;16894;49.456;10.644;2023-05-10T07:34:09;1027.93;;;934.05;;
30068;SDS011;16894;49.456;10.644;2023-05-10T07:36:35;1002.25;;;913.80;;
30068;SDS011;16894;49.456;10.644;2023-05-10T07:39:00;1051.10;;;954.50;;
30068;SDS011;16894;49.456;10.644;2023-05-10T07:41:26;1031.63;;;938.05;;
30068;SDS011;16894;49.456;10.644;2023-05-10T07:46:18;1068.13;;;969.60;;
30068;SDS011;16894;49.456;10.644;2023-05-10T07:48:44;1080.47;;;978.90;;
30068;SDS011;16894;49.456;10.644;2023-05-10T07:51:10;1085.55;;;982.05;;
30068;SDS011;16894;49.456;10.644;2023-05-10T07:53:37;1096.75;;;986.63;;
30068;SDS011;16894;49.456;10.644;2023-05-10T07:56:24;1084.45;;;980.47;;
30068;SDS011;16894;49.456;10.644;2023-05-10T07:59:03;1159.38;;;999.90;;
30068;SDS011;16894;49.456;10.644;2023-05-10T08:01:31;1002.85;;;914.08;;
30068;SDS011;16894;49.456;10.644;2023-05-10T08:03:58;910.90;;;836.83;;
30068;SDS011;16894;49.456;10.644;2023-05-10T08:06:24;696.55;;;645.05;;
30068;SDS011;16894;49.456;10.644;2023-05-10T08:08:52;666.45;;;618.10;;
30068;SDS011;16894;49.456;10.644;2023-05-10T08:11:19;767.33;;;709.47;;
30068;SDS011;16894;49.456;10.644;2023-05-10T08:13:45;998.20;;;910.42;;
30068;SDS011;16894;49.456;10.644;2023-05-10T08:16:12;1009.70;;;919.40;;
30068;SDS011;16894;49.456;10.644;2023-05-10T08:18:38;1065.87;;;966.27;;
30068;SDS011;16894;49.456;10.644;2023-05-10T08:21:04;1038.65;;;944.10;;
30068;SDS011;16894;49.456;10.644;2023-05-10T08:23:30;1092.05;;;986.35;;
30068;SDS011;16894;49.456;10.644;2023-05-10T08:25:56;1054.60;;;958.00;;
30068;SDS011;16894;49.456;10.644;2023-05-10T08:28:22;1057.60;;;958.10;;
30068;SDS011;16894;49.456;10.644;2023-05-10T08:30:47;1122.73;;;999.90;;
30068;SDS011;16894;49.456;10.644;2023-05-10T08:33:14;1097.00;;;990.40;;
30068;SDS011;16894;49.456;10.644;2023-05-10T08:35:40;1999.90;;;999.90;;
30068;SDS011;16894;49.456;10.644;2023-05-10T08:38:06;1999.90;;;999.90;;
30068;SDS011;16894;49.456;10.644;2023-05-10T08:40:32;1999.90;;;999.90;;
30068;SDS011;16894;49.456;10.644;2023-05-10T08:43:09;1999.90;;;999.90;;
30068;SDS011;16894;49.456;10.644;2023-05-10T08:45:40;1999.90;;;999.90;;
30068;SDS011;16894;49.456;10.644;2023-05-10T08:48:08;1999.90;;;999.90;;
30068;SDS011;16894;49.456;10.644;2023-05-10T08:50:35;1999.90;;;999.90;;
30068;SDS011;16894;49.456;10.644;2023-05-10T08:53:03;1999.90;;;999.90;;
30068;SDS011;16894;49.456;10.644;2023-05-10T08:55:31;1999.90;;;999.90;;
30068;SDS011;16894;49.456;10.644;2023-05-10T08:57:58;1999.90;;;999.90;;
30068;SDS011;16894;49.456;10.644;2023-05-10T09:00:24;1999.90;;;999.90;;
30068;SDS011;16894;49.456;10.644;2023-05-10T09:02:51;1999.90;;;999.90;;
30068;SDS011;16894;49.456;10.644;2023-05-10T09:05:17;1999.90;;;999.90;;
30068;SDS011;16894;49.456;10.644;2023-05-10T09:07:43;1999.90;;;999.90;;
30068;SDS011;16894;49.456;10.644;2023-05-10T09:10:09;1999.90;;;999.90;;
30068;SDS011;16894;49.456;10.644;2023-05-10T09:12:36;1999.90;;;999.90;;
30068;SDS011;16894;49.456;10.644;2023-05-10T09:15:03;1999.90;;;999.90;;
30068;SDS011;16894;49.456;10.644;2023-05-10T09:17:30;1999.90;;;999.90;;
30068;SDS011;16894;49.456;10.644;2023-05-10T09:19:57;1999.90;;;999.90;;
30068;SDS011;16894;49.456;10.644;2023-05-10T09:22:27;1999.90;;;999.90;;
30068;SDS011;16894;49.456;10.644;2023-05-10T09:27:41;1999.90;;;999.90;;
30068;SDS011;16894;49.456;10.644;2023-05-10T09:30:15;1999.90;;;999.90;;
30068;SDS011;16894;49.456;10.644;2023-05-10T09:32:50;1999.90;;;999.90;;
30068;SDS011;16894;49.456;10.644;2023-05-10T09:35:17;1999.90;;;999.90;;
30068;SDS011;16894;49.456;10.644;2023-05-10T09:37:45;1999.90;;;999.90;;
30068;SDS011;16894;49.456;10.644;2023-05-10T09:40:15;1999.90;;;999.90;;
30068;SDS011;16894;49.456;10.644;2023-05-10T09:42:51;1999.90;;;999.90;;
30068;SDS011;16894;49.456;10.644;2023-05-10T09:45:17;1999.90;;;999.90;;
30068;SDS011;16894;49.456;10.644;2023-05-10T09:47:42;1999.90;;;999.90;;
30068;SDS011;16894;49.456;10.644;2023-05-10T09:50:08;1999.90;;;999.90;;
30068;SDS011;16894;49.456;10.644;2023-05-10T09:52:47;1999.90;;;999.90;;
30068;SDS011;16894;49.456;10.644;2023-05-10T09:55:16;1999.90;;;999.90;;
30068;SDS011;16894;49.456;10.644;2023-05-10T09:57:47;1999.90;;;999.90;;
30068;SDS011;16894;49.456;10.644;2023-05-10T10:00:19;1999.90;;;999.90;;
30068;SDS011;16894;49.456;10.644;2023-05-10T10:02:53;1999.90;;;999.90;;
30068;SDS011;16894;49.456;10.644;2023-05-10T10:05:27;1999.90;;;999.90;;
30068;SDS011;16894;49.456;10.644;2023-05-10T10:08:01;1999.90;;;999.90;;
30068;SDS011;16894;49.456;10.644;2023-05-10T10:10:28;1999.90;;;999.90;;
30068;SDS011;16894;49.456;10.644;2023-05-10T10:12:55;1999.90;;;999.90;;
30068;SDS011;16894;49.456;10.644;2023-05-10T10:15:21;1999.90;;;999.90;;
30068;SDS011;16894;49.456;10.644;2023-05-10T10:17:48;1999.90;;;999.90;;
30068;SDS011;16894;49.456;10.644;2023-05-10T10:20:15;1999.90;;;999.90;;
30068;SDS011;16894;49.456;10.644;2023-05-10T10:22:42;1999.90;;;999.90;;
30068;SDS011;16894;49.456;10.644;2023-05-10T10:25:12;1999.90;;;999.90;;
30068;SDS011;16894;49.456;10.644;2023-05-10T10:27:48;1999.90;;;999.90;;
30068;SDS011;16894;49.456;10.644;2023-05-10T10:35:57;1999.90;;;999.90;;
30068;SDS011;16894;49.456;10.644;2023-05-10T10:38:25;1999.90;;;999.90;;
30068;SDS011;16894;49.456;10.644;2023-05-10T10:41:07;1999.90;;;999.90;;
30068;SDS011;16894;49.456;10.644;2023-05-10T10:44:19;1999.90;;;999.90;;
30068;SDS011;16894;49.456;10.644;2023-05-10T10:46:59;1999.90;;;999.90;;
30068;SDS011;16894;49.456;10.644;2023-05-10T10:49:25;1999.90;;;999.90;;
30068;SDS011;16894;49.456;10.644;2023-05-10T10:54:51;1999.90;;;999.90;;
30068;SDS011;16894;49.456;10.644;2023-05-10T10:57:28;1999.90;;;999.90;;
30068;SDS011;16894;49.456;10.644;2023-05-10T11:03:05;1999.90;;;999.90;;
30068;SDS011;16894;49.456;10.644;2023-05-10T11:05:35;1999.90;;;999.90;;
30068;SDS011;16894;49.456;10.644;2023-05-10T11:08:08;1999.90;;;999.90;;
30068;SDS011;16894;49.456;10.644;2023-05-10T11:10:36;1999.90;;;999.90;;
30068;SDS011;16894;49.456;10.644;2023-05-10T11:15:33;1999.90;;;999.90;;
30068;SDS011;16894;49.456;10.644;2023-05-10T11:18:16;1999.90;;;999.90;;
30068;SDS011;16894;49.456;10.644;2023-05-10T11:20:43;1999.90;;;999.90;;
30068;SDS011;16894;49.456;10.644;2023-05-10T11:23:12;1999.90;;;999.90;;
30068;SDS011;16894;49.456;10.644;2023-05-10T11:25:49;1999.90;;;999.90;;
30068;SDS011;16894;49.456;10.644;2023-05-10T11:28:16;1999.90;;;999.90;;
30068;SDS011;16894;49.456;10.644;2023-05-10T11:30:44;1999.90;;;999.90;;
30068;SDS011;16894;49.456;10.644;2023-05-10T11:35:40;1999.90;;;999.90;;
30068;SDS011;16894;49.456;10.644;2023-05-10T11:40:32;1999.90;;;999.90;;
30068;SDS011;16894;49.456;10.644;2023-05-10T11:45:25;1999.90;;;999.90;;
30068;SDS011;16894;49.456;10.644;2023-05-10T11:47:51;1999.90;;;999.90;;
30068;SDS011;16894;49.456;10.644;2023-05-10T11:50:17;1999.90;;;999.90;;
30068;SDS011;16894;49.456;10.644;2023-05-10T11:52:43;1999.90;;;999.90;;
30068;SDS011;16894;49.456;10.644;2023-05-10T11:55:08;1999.90;;;999.90;;
30068;SDS011;16894;49.456;10.644;2023-05-10T11:57:34;1999.90;;;999.90;;
30068;SDS011;16894;49.456;10.644;2023-05-10T12:00:00;1999.90;;;999.90;;
30068;SDS011;16894;49.456;10.644;2023-05-10T12:02:28;1999.90;;;999.90;;
30068;SDS011;16894;49.456;10.644;2023-05-10T12:04:55;1999.90;;;999.90;;
30068;SDS011;16894;49.456;10.644;2023-05-10T12:07:21;1999.90;;;999.90;;
30068;SDS011;16894;49.456;10.644;2023-05-10T12:12:45;1999.90;;;999.90;;
30068;SDS011;16894;49.456;10.644;2023-05-10T12:15:21;1999.90;;;999.90;;
30068;SDS011;16894;49.456;10.644;2023-05-10T12:17:48;1999.90;;;999.90;;
30068;SDS011;16894;49.456;10.644;2023-05-10T12:20:18;1999.90;;;999.90;;
30068;SDS011;16894;49.456;10.644;2023-05-10T12:22:49;1999.90;;;999.90;;
30068;SDS011;16894;49.456;10.644;2023-05-10T12:25:20;1999.90;;;999.90;;
30068;SDS011;16894;49.456;10.644;2023-05-10T12:27:51;1999.90;;;999.90;;
30068;SDS011;16894;49.456;10.644;2023-05-10T12:30:24;1999.90;;;999.90;;
30068;SDS011;16894;49.456;10.644;2023-05-10T12:32:52;1999.90;;;999.90;;
30068;SDS011;16894;49.456;10.644;2023-05-10T12:35:18;1999.90;;;999.90;;
30068;SDS011;16894;49.456;10.644;2023-05-10T12:37:47;1999.90;;;999.90;;
30068;SDS011;16894;49.456;10.644;2023-05-10T12:40:13;1999.90;;;999.90;;
30068;SDS011;16894;49.456;10.644;2023-05-10T12:42:39;1999.90;;;999.90;;
30068;SDS011;16894;49.456;10.644;2023-05-10T12:45:05;1999.90;;;999.90;;
30068;SDS011;16894;49.456;10.644;2023-05-10T12:47:32;1999.90;;;999.90;;
30068;SDS011;16894;49.456;10.644;2023-05-10T12:52:25;1999.90;;;999.90;;
30068;SDS011;16894;49.456;10.644;2023-05-10T12:54:51;1999.90;;;999.90;;
30068;SDS011;16894;49.456;10.644;2023-05-10T12:57:17;1999.90;;;999.90;;
30068;SDS011;16894;49.456;10.644;2023-05-10T12:59:43;1999.90;;;999.90;;
30068;SDS011;16894;49.456;10.644;2023-05-10T13:02:09;1999.90;;;999.90;;
30068;SDS011;16894;49.456;10.644;2023-05-10T13:04:35;1999.90;;;999.90;;
30068;SDS011;16894;49.456;10.644;2023-05-10T13:07:04;1999.90;;;999.90;;
30068;SDS011;16894;49.456;10.644;2023-05-10T13:09:33;1999.90;;;999.90;;
30068;SDS011;16894;49.456;10.644;2023-05-10T13:11:59;1999.90;;;999.90;;
30068;SDS011;16894;49.456;10.644;2023-05-10T13:14:25;1999.90;;;999.90;;
30068;SDS011;16894;49.456;10.644;2023-05-10T13:16:51;1999.90;;;999.90;;
30068;SDS011;16894;49.456;10.644;2023-05-10T13:19:17;1999.90;;;999.90;;
30068;SDS011;16894;49.456;10.644;2023-05-10T13:21:43;1999.90;;;999.90;;
30068;SDS011;16894;49.456;10.644;2023-05-10T13:24:11;1999.90;;;999.90;;
30068;SDS011;16894;49.456;10.644;2023-05-10T13:26:39;1999.90;;;999.90;;
30068;SDS011;16894;49.456;10.644;2023-05-10T13:29:05;1999.90;;;999.90;;
30068;SDS011;16894;49.456;10.644;2023-05-10T13:31:32;1999.90;;;999.90;;
30068;SDS011;16894;49.456;10.644;2023-05-10T13:33:59;1999.90;;;999.90;;
30068;SDS011;16894;49.456;10.644;2023-05-10T13:36:25;1999.90;;;999.90;;
30068;SDS011;16894;49.456;10.644;2023-05-10T13:38:50;1999.90;;;999.90;;
30068;SDS011;16894;49.456;10.644;2023-05-10T13:41:16;1999.90;;;999.90;;
30068;SDS011;16894;49.456;10.644;2023-05-10T13:43:42;1999.90;;;999.90;;
30068;SDS011;16894;49.456;10.644;2023-05-10T13:46:07;1999.90;;;999.90;;
30068;SDS011;16894;49.456;10.644;2023-05-10T13:48:33;1999.90;;;999.90;;
30068;SDS011;16894;49.456;10.644;2023-05-10T13:50:58;1999.90;;;999.90;;
30068;SDS011;16894;49.456;10.644;2023-05-10T13:53:24;1999.90;;;999.90;;
30068;SDS011;16894;49.456;10.644;2023-05-10T13:55:50;1999.90;;;999.90;;
30068;SDS011;16894;49.456;10.644;2023-05-10T13:58:16;1999.90;;;999.90;;
30068;SDS011;16894;49.456;10.644;2023-05-10T14:00:41;1999.90;;;999.90;;
30068;SDS011;16894;49.456;10.644;2023-05-10T14:03:07;1999.90;;;999.90;;
30068;SDS011;16894;49.456;10.644;2023-05-10T14:05:34;1999.90;;;999.90;;
30068;SDS011;16894;49.456;10.644;2023-05-10T14:07:59;1999.90;;;999.90;;
30068;SDS011;16894;49.456;10.644;2023-05-10T14:10:25;1999.90;;;999.90;;
30068;SDS011;16894;49.456;10.644;2023-05-10T14:12:50;1999.90;;;999.90;;
30068;SDS011;16894;49.456;10.644;2023-05-10T14:15:16;1999.90;;;999.90;;
30068;SDS011;16894;49.456;10.644;2023-05-10T14:17:42;1999.90;;;999.90;;
30068;SDS011;16894;49.456;10.644;2023-05-10T14:20:07;1999.90;;;999.90;;
30068;SDS011;16894;49.456;10.644;2023-05-10T14:22:34;1999.90;;;999.90;;
30068;SDS011;16894;49.456;10.644;2023-05-10T14:24:59;1999.90;;;999.90;;
30068;SDS011;16894;49.456;10.644;2023-05-10T14:27:25;917.00;;;595.53;;
30068;SDS011;16894;49.456;10.644;2023-05-10T14:29:51;673.08;;;552.35;;
30068;SDS011;16894;49.456;10.644;2023-05-10T14:32:18;1035.43;;;922.15;;
30068;SDS011;16894;49.456;10.644;2023-05-10T14:34:43;1158.63;;;999.90;;
30068;SDS011;16894;49.456;10.644;2023-05-10T14:37:10;1136.28;;;999.90;;
30068;SDS011;16894;49.456;10.644;2023-05-10T14:39:36;1066.45;;;964.20;;
30068;SDS011;16894;49.456;10.644;2023-05-10T14:42:02;1010.30;;;918.08;;
30068;SDS011;16894;49.456;10.644;2023-05-10T14:44:28;707.88;;;652.05;;
30068;SDS011;16894;49.456;10.644;2023-05-10T14:46:54;361.70;;;334.88;;
30068;SDS011;16894;49.456;10.644;2023-05-10T14:49:21;117.35;;;109.93;;
30068;SDS011;16894;49.456;10.644;2023-05-10T14:51:47;47.80;;;44.33;;
30068;SDS011;16894;49.456;10.644;2023-05-10T14:54:13;23.10;;;21.27;;
30068;SDS011;16894;49.456;10.644;2023-05-10T14:56:39;17.45;;;15.73;;
30068;SDS011;16894;49.456;10.644;2023-05-10T14:59:06;21.85;;;20.15;;
30068;SDS011;16894;49.456;10.644;2023-05-10T15:01:32;16.30;;;15.10;;